Time,TemperatureF,DewpointF,PressureIn,WindDirection,WindDirectionDegrees,WindSpeedMPH,WindSpeedGustMPH,Humidity,HourlyPrecipIn,Conditions,Clouds,dailyrainin,SolarRadiationWatts/m^2,SoftwareType,DateUTC
2013-03-25 00:00:00,28.8,15.9,30.17,NNW,328,6.0,9.0,58,0.00,,---,0.00,0.00,VWS V14.01,2013-03-25 05:00:00,
2013-03-25 00:05:00,28.5,15.6,30.17,NNW,339,7.0,13.0,58,0.00,,---,0.00,0.00,VWS V14.01,2013-03-25 05:05:00,
2013-03-25 00:10:00,28.4,16.3,30.18,NW,317,12.0,17.0,60,0.00,,---,0.00,0.00,VWS V14.01,2013-03-25 05:10:00,
2013-03-25 00:15:00,28.1,16.0,30.18,NNW,334,13.0,17.0,60,0.00,,---,0.00,0.00,VWS V14.01,2013-03-25 05:15:00,
2013-03-25 00:20:00,27.9,15.8,30.18,North,355,11.0,17.0,60,0.00,,---,0.00,0.00,VWS V14.01,2013-03-25 05:20:00,
2013-03-25 00:25:00,27.8,15.7,30.18,WNW,300,9.0,17.0,60,0.00,,---,0.00,0.00,VWS V14.01,2013-03-25 05:25:00,
2013-03-25 00:30:00,27.6,15.2,30.18,NNW,337,13.0,13.0,59,0.00,,---,0.00,0.00,VWS V14.01,2013-03-25 05:30:00,
2013-03-25 00:35:00,27.6,15.2,30.19,WNW,300,8.0,21.0,59,0.00,,---,0.00,0.00,VWS V14.01,2013-03-25 05:35:00,
2013-03-25 00:40:00,27.5,15.4,30.19,NW,322,14.0,21.0,60,0.00,,---,0.00,0.00,VWS V14.01,2013-03-25 05:40:00,
2013-03-25 00:45:00,27.2,15.2,30.19,NNW,345,8.0,21.0,60,0.00,,---,0.00,0.00,VWS V14.01,2013-03-25 05:45:00,
2013-03-25 00:50:00,27.2,15.6,30.19,NW,314,13.0,21.0,61,0.00,,---,0.00,0.00,VWS V14.01,2013-03-25 05:50:00,
2013-03-25 00:55:00,26.9,15.6,30.19,NW,325,9.0,21.0,62,0.00,,---,0.00,0.00,VWS V14.01,2013-03-25 05:55:00,
2013-03-25 01:00:00,26.7,15.4,30.19,NW,309,5.0,8.0,62,0.00,,---,0.00,0.00,VWS V14.01,2013-03-25 06:00:00,
2013-03-25 01:05:00,26.6,15.4,30.19,West,281,6.0,14.0,62,0.00,,---,0.00,0.00,VWS V14.01,2013-03-25 06:05:00,
2013-03-25 01:10:00,26.6,15.7,30.19,NNW,348,6.0,14.0,63,0.00,,---,0.00,0.00,VWS V14.01,2013-03-25 06:10:00,
2013-03-25 01:15:00,26.4,15.5,30.19,NW,313,6.0,14.0,63,0.00,,---,0.00,0.00,VWS V14.01,2013-03-25 06:15:00,
2013-03-25 01:20:00,26.4,15.5,30.19,WNW,293,7.0,14.0,63,0.00,,---,0.00,0.00,VWS V14.01,2013-03-25 06:20:00,
2013-03-25 01:25:00,26.3,15.4,30.19,WNW,298,17.0,17.0,63,0.00,,---,0.00,0.00,VWS V14.01,2013-03-25 06:25:00,
2013-03-25 01:30:00,26.1,15.2,30.19,WNW,300,9.0,14.0,63,0.00,,---,0.00,0.00,VWS V14.01,2013-03-25 06:30:00,
2013-03-25 01:35:00,26.1,15.2,30.19,NNW,329,6.0,17.0,63,0.00,,---,0.00,0.00,VWS V14.01,2013-03-25 06:35:00,
2013-03-25 01:40:00,26.0,15.5,30.19,NNW,329,8.0,17.0,64,0.00,,---,0.00,0.00,VWS V14.01,2013-03-25 06:40:00,
2013-03-25 01:45:00,25.8,15.7,30.19,NNW,327,17.0,17.0,65,0.00,,---,0.00,0.00,VWS V14.01,2013-03-25 06:45:00,
2013-03-25 01:50:00,25.7,15.6,30.19,NW,309,5.0,17.0,65,0.00,,---,0.00,0.00,VWS V14.01,2013-03-25 06:50:00,
2013-03-25 01:55:00,25.7,15.6,30.19,North,355,5.0,17.0,65,0.00,,---,0.00,0.00,VWS V14.01,2013-03-25 06:55:00,
2013-03-25 02:00:00,25.7,15.6,30.19,NNW,336,9.0,14.0,65,0.00,,---,0.00,0.00,VWS V14.01,2013-03-25 07:00:00,
2013-03-25 02:05:00,25.7,15.6,30.19,NNW,340,12.0,15.0,65,0.00,,---,0.00,0.00,VWS V14.01,2013-03-25 07:05:00,
2013-03-25 02:10:00,25.6,15.8,30.19,WNW,299,9.0,16.0,66,0.00,,---,0.00,0.00,VWS V14.01,2013-03-25 07:10:00,
2013-03-25 02:16:00,25.6,15.1,30.19,NNW,335,8.0,18.0,64,0.00,,---,0.00,0.00,VWS V14.01,2013-03-25 07:16:00,
2013-03-25 02:21:00,25.4,15.6,30.19,WNW,298,11.0,18.0,66,0.00,,---,0.00,0.00,VWS V14.01,2013-03-25 07:21:00,
2013-03-25 02:26:00,25.4,15.6,30.20,WNW,297,9.0,18.0,66,0.00,,---,0.00,0.00,VWS V14.01,2013-03-25 07:26:00,
2013-03-25 02:30:00,25.4,15.6,30.20,West,265,7.0,18.0,66,0.00,,---,0.00,0.00,VWS V14.01,2013-03-25 07:30:00,
2013-03-25 02:31:00,25.4,15.6,30.20,WNW,293,13.0,15.0,66,0.00,,---,0.00,0.00,VWS V14.01,2013-03-25 07:31:00,
2013-03-25 02:36:00,25.3,15.9,30.20,WNW,289,10.0,16.0,67,0.00,,---,0.00,0.00,VWS V14.01,2013-03-25 07:36:00,
2013-03-25 02:41:00,25.3,15.9,30.20,NW,308,7.0,17.0,67,0.00,,---,0.00,0.00,VWS V14.01,2013-03-25 07:41:00,
2013-03-25 02:46:00,25.1,15.7,30.20,WNW,288,6.0,18.0,67,0.00,,---,0.00,0.00,VWS V14.01,2013-03-25 07:46:00,
2013-03-25 02:51:00,25.1,15.7,30.20,WNW,297,6.0,18.0,67,0.00,,---,0.00,0.00,VWS V14.01,2013-03-25 07:51:00,
2013-03-25 02:56:00,25.1,15.7,30.20,WNW,300,17.0,18.0,67,0.00,,---,0.00,0.00,VWS V14.01,2013-03-25 07:56:00,
2013-03-25 03:00:00,25.1,15.7,30.20,WNW,296,11.0,18.0,67,0.00,,---,0.00,0.00,VWS V14.01,2013-03-25 08:00:00,
2013-03-25 03:01:00,25.1,15.7,30.20,WNW,290,11.0,14.0,67,0.00,,---,0.00,0.00,VWS V14.01,2013-03-25 08:01:00,
2013-03-25 03:06:00,25.0,15.9,30.20,NW,314,5.0,14.0,68,0.00,,---,0.00,0.00,VWS V14.01,2013-03-25 08:06:00,
2013-03-25 03:11:00,24.8,15.8,30.20,West,265,7.0,14.0,68,0.00,,---,0.00,0.00,VWS V14.01,2013-03-25 08:11:00,
2013-03-25 03:16:00,24.8,16.1,30.20,WNW,302,11.0,14.0,69,0.00,,---,0.00,0.00,VWS V14.01,2013-03-25 08:16:00,
2013-03-25 03:21:00,24.8,16.1,30.20,WNW,302,11.0,14.0,69,0.00,,---,0.00,0.00,VWS V14.01,2013-03-25 08:21:00,
2013-03-25 03:26:00,25.4,18.3,30.20,West,264,9.0,14.0,74,0.00,,---,0.00,0.00,VWS V14.01,2013-03-25 08:26:00,
2013-03-25 03:30:00,25.4,18.3,30.20,WNW,299,1.0,14.0,74,0.00,,---,0.00,0.00,VWS V14.01,2013-03-25 08:30:00,
2013-03-25 03:31:00,25.3,18.2,30.20,West,267,5.0,9.0,74,0.00,,---,0.00,0.00,VWS V14.01,2013-03-25 08:31:00,
2013-03-25 03:36:00,25.2,18.1,30.20,NW,320,3.0,9.0,74,0.00,,---,0.00,0.00,VWS V14.01,2013-03-25 08:36:00,
2013-03-25 03:41:00,25.1,18.0,30.20,NNW,336,6.0,11.0,74,0.00,,---,0.00,0.00,VWS V14.01,2013-03-25 08:41:00,
2013-03-25 03:46:00,25.0,17.9,30.19,WNW,283,6.0,11.0,74,0.00,,---,0.00,0.00,VWS V14.01,2013-03-25 08:46:00,
2013-03-25 03:51:00,25.0,17.9,30.19,West,272,5.0,11.0,74,0.00,,---,0.00,0.00,VWS V14.01,2013-03-25 08:51:00,
2013-03-25 03:56:00,25.1,18.0,30.20,NW,309,4.0,11.0,74,0.00,,---,0.00,0.00,VWS V14.01,2013-03-25 08:56:00,
2013-03-25 04:00:00,25.1,18.0,30.20,West,277,11.0,11.0,74,0.00,,---,0.00,0.00,VWS V14.01,2013-03-25 09:00:00,
2013-03-25 04:02:00,25.1,18.0,30.20,West,277,11.0,11.0,74,0.00,,---,0.00,0.00,VWS V14.01,2013-03-25 09:02:00,
2013-03-25 04:07:00,24.4,15.7,30.20,NNW,338,7.0,15.0,69,0.00,,---,0.00,0.00,VWS V14.01,2013-03-25 09:07:00,
2013-03-25 04:12:00,24.4,15.7,30.20,WNW,302,12.0,19.0,69,0.00,,---,0.00,0.00,VWS V14.01,2013-03-25 09:12:00,
2013-03-25 04:17:00,24.4,15.7,30.20,West,277,14.0,21.0,69,0.00,,---,0.00,0.00,VWS V14.01,2013-03-25 09:17:00,
2013-03-25 04:22:00,24.4,15.7,30.20,NNW,329,8.0,21.0,69,0.00,,---,0.00,0.00,VWS V14.01,2013-03-25 09:22:00,
2013-03-25 04:27:00,24.4,15.7,30.19,NW,324,8.0,21.0,69,0.00,,---,0.00,0.00,VWS V14.01,2013-03-25 09:27:00,
2013-03-25 04:30:00,24.4,15.7,30.20,NW,307,12.0,21.0,69,0.00,,---,0.00,0.00,VWS V14.01,2013-03-25 09:30:00,
2013-03-25 04:32:00,24.4,15.7,30.20,WNW,300,9.0,18.0,69,0.00,,---,0.00,0.00,VWS V14.01,2013-03-25 09:32:00,
2013-03-25 04:37:00,24.4,15.7,30.20,NW,325,11.0,18.0,69,0.00,,---,0.00,0.00,VWS V14.01,2013-03-25 09:37:00,
2013-03-25 04:42:00,24.4,15.7,30.20,NW,311,9.0,19.0,69,0.00,,---,0.00,0.00,VWS V14.01,2013-03-25 09:42:00,
2013-03-25 04:47:00,24.4,15.7,30.20,NNW,344,11.0,22.0,69,0.00,,---,0.00,0.00,VWS V14.01,2013-03-25 09:47:00,
2013-03-25 04:52:00,24.4,15.7,30.20,WNW,301,8.0,22.0,69,0.00,,---,0.00,0.00,VWS V14.01,2013-03-25 09:52:00,
2013-03-25 04:57:00,24.4,15.7,30.20,NW,311,13.0,22.0,69,0.00,,---,0.00,0.00,VWS V14.01,2013-03-25 09:57:00,
2013-03-25 05:00:00,24.4,15.7,30.20,NNW,336,10.0,22.0,69,0.00,,---,0.00,0.00,VWS V14.01,2013-03-25 10:00:00,
2013-03-25 05:02:00,24.2,15.5,30.20,NW,306,11.0,18.0,69,0.00,,---,0.00,0.00,VWS V14.01,2013-03-25 10:02:00,
2013-03-25 05:07:00,24.2,15.5,30.20,WNW,296,18.0,18.0,69,0.00,,---,0.00,0.00,VWS V14.01,2013-03-25 10:07:00,
2013-03-25 05:12:00,24.4,15.4,30.21,NW,324,10.0,19.0,68,0.00,,---,0.00,0.00,VWS V14.01,2013-03-25 10:12:00,
2013-03-25 05:17:00,24.4,15.4,30.21,WNW,300,7.0,22.0,68,0.00,,---,0.00,0.00,VWS V14.01,2013-03-25 10:17:00,
2013-03-25 05:22:00,24.4,15.4,30.21,NW,317,12.0,22.0,68,0.00,,---,0.00,0.00,VWS V14.01,2013-03-25 10:22:00,
2013-03-25 05:27:00,24.5,15.5,30.21,NNW,336,13.0,24.0,68,0.00,,---,0.00,0.00,VWS V14.01,2013-03-25 10:27:00,
2013-03-25 05:30:00,24.5,15.5,30.21,NW,310,14.0,24.0,68,0.00,,---,0.00,0.00,VWS V14.01,2013-03-25 10:30:00,
2013-03-25 05:32:00,24.5,15.5,30.21,NW,312,16.0,23.0,68,0.00,,---,0.00,0.00,VWS V14.01,2013-03-25 10:32:00,
2013-03-25 05:37:00,24.5,15.5,30.21,WNW,297,12.0,23.0,68,0.00,,---,0.00,0.00,VWS V14.01,2013-03-25 10:37:00,
2013-03-25 05:42:00,24.4,15.7,30.21,NW,308,13.0,23.0,69,0.00,,---,0.00,0.00,VWS V14.01,2013-03-25 10:42:00,
2013-03-25 05:47:00,24.2,15.5,30.21,NW,313,15.0,23.0,69,0.00,,---,0.00,0.00,VWS V14.01,2013-03-25 10:47:00,
2013-03-25 05:52:00,24.2,15.5,30.22,NNW,329,16.0,23.0,69,0.00,,---,0.00,0.00,VWS V14.01,2013-03-25 10:52:00,
2013-03-25 05:57:00,24.2,15.5,30.22,NW,325,16.0,23.0,69,0.00,,---,0.00,0.00,VWS V14.01,2013-03-25 10:57:00,
2013-03-25 06:00:00,24.1,15.4,30.22,WNW,298,17.0,26.0,69,0.00,,---,0.00,0.00,VWS V14.01,2013-03-25 11:00:00,
2013-03-25 06:02:00,24.1,15.4,30.22,NNW,335,7.0,20.0,69,0.00,,---,0.00,0.00,VWS V14.01,2013-03-25 11:02:00,
2013-03-25 06:08:00,24.1,15.8,30.22,NW,324,12.0,20.0,70,0.00,,---,0.00,0.00,VWS V14.01,2013-03-25 11:08:00,
2013-03-25 06:13:00,23.9,15.6,30.22,WNW,299,11.0,22.0,70,0.00,,---,0.00,0.00,VWS V14.01,2013-03-25 11:13:00,
2013-03-25 06:18:00,23.9,15.6,30.23,NNW,332,10.0,22.0,70,0.00,,---,0.00,0.00,VWS V14.01,2013-03-25 11:18:00,
2013-03-25 06:23:00,24.6,16.2,30.23,WNW,285,8.0,22.0,70,0.00,,---,0.00,0.00,VWS V14.01,2013-03-25 11:23:00,
2013-03-25 06:28:00,24.7,18.2,30.23,NW,321,9.0,22.0,76,0.00,,---,0.00,0.00,VWS V14.01,2013-03-25 11:28:00,
2013-03-25 06:30:00,24.7,18.2,30.23,SW,223,8.0,22.0,76,0.00,,---,0.00,0.00,VWS V14.01,2013-03-25 11:30:00,
2013-03-25 06:33:00,24.7,18.2,30.23,NW,315,10.0,13.0,76,0.00,,---,0.00,0.00,VWS V14.01,2013-03-25 11:33:00,
2013-03-25 06:38:00,24.8,18.3,30.23,WNW,296,6.0,13.0,76,0.00,,---,0.00,0.00,VWS V14.01,2013-03-25 11:38:00,
2013-03-25 06:43:00,24.9,18.4,30.24,WNW,296,5.0,13.0,76,0.00,,---,0.00,0.00,VWS V14.01,2013-03-25 11:43:00,
2013-03-25 06:48:00,25.0,18.5,30.24,NW,315,10.0,13.0,76,0.00,,---,0.00,0.00,VWS V14.01,2013-03-25 11:48:00,
2013-03-25 06:53:00,25.1,18.6,30.24,NW,309,2.0,13.0,76,0.00,,---,0.00,0.00,VWS V14.01,2013-03-25 11:53:00,
2013-03-25 06:58:00,25.1,18.6,30.24,NW,314,5.0,13.0,76,0.00,,---,0.00,0.00,VWS V14.01,2013-03-25 11:58:00,
2013-03-25 07:00:00,25.2,18.7,30.24,SW,232,6.0,13.0,76,0.00,,---,0.00,0.00,VWS V14.01,2013-03-25 12:00:00,
2013-03-25 07:03:00,25.2,18.4,30.25,NNE,13,5.0,13.0,75,0.00,,---,0.00,0.00,VWS V14.01,2013-03-25 12:03:00,
2013-03-25 07:08:00,25.2,18.4,30.25,West,263,6.0,15.0,75,0.00,,---,0.00,0.00,VWS V14.01,2013-03-25 12:08:00,
2013-03-25 07:13:00,25.1,18.6,30.25,WNW,302,6.0,15.0,76,0.00,,---,0.00,0.00,VWS V14.01,2013-03-25 12:13:00,
2013-03-25 07:18:00,25.1,18.6,30.25,WNW,300,2.0,15.0,76,0.00,,---,0.00,0.00,VWS V14.01,2013-03-25 12:18:00,
2013-03-25 07:23:00,25.1,18.6,30.25,WNW,302,3.0,15.0,76,0.00,,---,0.00,0.00,VWS V14.01,2013-03-25 12:23:00,
2013-03-25 07:28:00,25.0,18.5,30.26,NW,313,6.0,15.0,76,0.00,,---,0.00,0.00,VWS V14.01,2013-03-25 12:28:00,
2013-03-25 07:30:00,25.0,18.5,30.26,WSW,251,3.0,15.0,76,0.00,,---,0.00,0.00,VWS V14.01,2013-03-25 12:30:00,
2013-03-25 07:33:00,25.0,18.5,30.26,NNW,342,4.0,9.0,76,0.00,,---,0.00,0.00,VWS V14.01,2013-03-25 12:33:00,
2013-03-25 07:38:00,24.9,18.4,30.26,WSW,243,2.0,11.0,76,0.00,,---,0.00,0.00,VWS V14.01,2013-03-25 12:38:00,
2013-03-25 07:43:00,24.8,18.3,30.27,West,267,4.0,11.0,76,0.00,,---,0.00,0.00,VWS V14.01,2013-03-25 12:43:00,
2013-03-25 07:49:00,24.7,18.2,30.27,WNW,284,3.0,11.0,76,0.00,,---,0.00,0.00,VWS V14.01,2013-03-25 12:49:00,
2013-03-25 07:54:00,24.7,18.2,30.26,NW,323,3.0,11.0,76,0.00,,---,0.00,0.00,VWS V14.01,2013-03-25 12:54:00,
2013-03-25 07:59:00,24.6,18.1,30.27,NNW,333,6.0,11.0,76,0.00,,---,0.00,0.00,VWS V14.01,2013-03-25 12:59:00,
2013-03-25 08:00:00,24.6,18.1,30.27,NNW,337,5.0,11.0,76,0.00,,---,0.00,0.00,VWS V14.01,2013-03-25 13:00:00,
2013-03-25 08:04:00,24.5,18.0,30.27,WNW,284,6.0,12.0,76,0.00,,---,0.00,0.00,VWS V14.01,2013-03-25 13:04:00,
2013-03-25 08:09:00,24.4,17.9,30.27,WNW,302,4.0,12.0,76,0.00,,---,0.00,0.00,VWS V14.01,2013-03-25 13:09:00,
2013-03-25 08:14:00,24.4,17.9,30.28,WNW,285,5.0,12.0,76,0.00,,---,0.00,0.00,VWS V14.01,2013-03-25 13:14:00,
2013-03-25 08:19:00,24.4,17.9,30.28,WNW,289,3.0,12.0,76,0.00,,---,0.00,0.00,VWS V14.01,2013-03-25 13:19:00,
2013-03-25 08:24:00,24.6,18.1,30.28,West,272,6.0,12.0,76,0.00,,---,0.00,0.00,VWS V14.01,2013-03-25 13:24:00,
2013-03-25 08:29:00,24.9,18.4,30.28,West,277,10.0,12.0,76,0.00,,---,0.00,0.00,VWS V14.01,2013-03-25 13:29:00,
2013-03-25 08:30:00,24.9,18.4,30.28,NW,321,5.0,12.0,76,0.00,,---,0.00,0.00,VWS V14.01,2013-03-25 13:30:00,
2013-03-25 08:34:00,25.4,18.6,30.28,NNW,334,7.0,11.0,75,0.00,,---,0.00,0.00,VWS V14.01,2013-03-25 13:34:00,
2013-03-25 08:39:00,25.8,18.7,30.28,WSW,250,4.0,11.0,74,0.00,,---,0.00,0.00,VWS V14.01,2013-03-25 13:39:00,
2013-03-25 08:44:00,26.1,18.6,30.28,West,269,7.0,14.0,73,0.00,,---,0.00,0.00,VWS V14.01,2013-03-25 13:44:00,
2013-03-25 08:49:00,26.5,19.0,30.28,West,276,7.0,14.0,73,0.00,,---,0.00,0.00,VWS V14.01,2013-03-25 13:49:00,
2013-03-25 08:54:00,26.9,19.1,30.29,NW,320,3.0,14.0,72,0.00,,---,0.00,0.00,VWS V14.01,2013-03-25 13:54:00,
2013-03-25 08:59:00,27.2,19.1,30.29,WNW,287,8.0,15.0,71,0.00,,---,0.00,0.00,VWS V14.01,2013-03-25 13:59:00,
2013-03-25 09:00:00,27.3,19.1,30.29,WNW,287,6.0,15.0,71,0.00,,---,0.00,0.00,VWS V14.01,2013-03-25 14:00:00,
2013-03-25 09:04:00,27.5,19.0,30.29,NW,319,7.0,12.0,70,0.00,,---,0.00,0.00,VWS V14.01,2013-03-25 14:04:00,
2013-03-25 09:09:00,27.8,19.3,30.29,WSW,249,8.0,13.0,70,0.00,,---,0.00,0.00,VWS V14.01,2013-03-25 14:09:00,
2013-03-25 09:14:00,28.1,19.3,30.29,WNW,286,6.0,13.0,69,0.00,,---,0.00,0.00,VWS V14.01,2013-03-25 14:14:00,
2013-03-25 09:19:00,28.2,19.0,30.29,NNE,30,18.0,18.0,68,0.00,,---,0.00,0.00,VWS V14.01,2013-03-25 14:19:00,
2013-03-25 09:24:00,28.3,18.8,30.29,WSW,257,6.0,18.0,67,0.00,,---,0.00,0.00,VWS V14.01,2013-03-25 14:24:00,
2013-03-25 09:29:00,28.6,19.0,30.30,NNW,337,5.0,18.0,67,0.00,,---,0.00,0.00,VWS V14.01,2013-03-25 14:29:00,
2013-03-25 09:30:00,28.6,19.0,30.30,NW,314,6.0,18.0,67,0.00,,---,0.00,0.00,VWS V14.01,2013-03-25 14:30:00,
2013-03-25 09:34:00,28.6,18.7,30.29,NNW,333,10.0,15.0,66,0.00,,---,0.00,0.00,VWS V14.01,2013-03-25 14:34:00,
2013-03-25 09:39:00,28.9,19.3,30.30,NW,317,11.0,19.0,67,0.00,,---,0.00,0.00,VWS V14.01,2013-03-25 14:39:00,
2013-03-25 09:44:00,29.1,19.2,30.30,NNE,28,5.0,19.0,66,0.00,,---,0.00,0.00,VWS V14.01,2013-03-25 14:44:00,
2013-03-25 09:49:00,29.2,18.9,30.30,North,350,4.0,19.0,65,0.00,,---,0.00,0.00,VWS V14.01,2013-03-25 14:49:00,
2013-03-25 09:54:00,29.5,19.2,30.30,WNW,286,4.0,19.0,65,0.00,,---,0.00,0.00,VWS V14.01,2013-03-25 14:54:00,
2013-03-25 09:59:00,29.7,19.0,30.30,WNW,294,10.0,19.0,64,0.00,,---,0.00,0.00,VWS V14.01,2013-03-25 14:59:00,
2013-03-25 10:00:00,29.7,19.0,30.30,North,355,10.0,19.0,64,0.00,,---,0.00,0.00,VWS V14.01,2013-03-25 15:00:00,
2013-03-25 10:04:00,30.0,19.0,30.30,WNW,303,6.0,14.0,63,0.00,,---,0.00,0.00,VWS V14.01,2013-03-25 15:04:00,
2013-03-25 10:09:00,29.9,18.5,30.30,North,11,4.0,19.0,62,0.00,,---,0.00,0.00,VWS V14.01,2013-03-25 15:09:00,
2013-03-25 10:14:00,30.3,19.2,30.31,NNW,345,16.0,19.0,63,0.00,,---,0.00,0.00,VWS V14.01,2013-03-25 15:14:00,
2013-03-25 10:19:00,30.5,19.4,30.30,NE,51,10.0,19.0,63,0.00,,---,0.00,0.00,VWS V14.01,2013-03-25 15:19:00,
2013-03-25 10:24:00,30.7,18.9,30.31,WNW,300,7.0,19.0,61,0.00,,---,0.00,0.00,VWS V14.01,2013-03-25 15:24:00,
2013-03-25 10:29:00,31.0,19.5,30.31,WNW,294,4.0,19.0,62,0.00,,---,0.00,0.00,VWS V14.01,2013-03-25 15:29:00,
2013-03-25 10:30:00,31.0,19.5,30.31,ENE,59,8.0,19.0,62,0.00,,---,0.00,0.00,VWS V14.01,2013-03-25 15:30:00,
2013-03-25 10:34:00,31.8,19.5,30.31,West,267,12.0,12.0,60,0.00,,---,0.00,0.00,VWS V14.01,2013-03-25 15:34:00,
2013-03-25 10:39:00,31.6,18.9,30.31,NNE,26,8.0,17.0,59,0.00,,---,0.00,0.00,VWS V14.01,2013-03-25 15:39:00,
2013-03-25 10:44:00,32.0,18.9,30.31,NW,304,16.0,17.0,58,0.00,,---,0.00,0.00,VWS V14.01,2013-03-25 15:44:00,
2013-03-25 10:49:00,31.7,18.6,30.31,NW,312,9.0,17.0,58,0.00,,---,0.00,0.00,VWS V14.01,2013-03-25 15:49:00,
2013-03-25 10:54:00,31.8,18.3,30.31,NNW,329,15.0,18.0,57,0.00,,---,0.00,0.00,VWS V14.01,2013-03-25 15:54:00,
2013-03-25 10:59:00,32.3,19.2,30.31,NW,318,5.0,18.0,58,0.00,,---,0.00,0.00,VWS V14.01,2013-03-25 15:59:00,
2013-03-25 11:00:00,32.3,19.2,30.31,NW,320,8.0,18.0,58,0.00,,---,0.00,0.00,VWS V14.01,2013-03-25 16:00:00,
2013-03-25 11:04:00,32.1,19.0,30.31,West,260,9.0,17.0,58,0.00,,---,0.00,0.00,VWS V14.01,2013-03-25 16:04:00,
2013-03-25 11:09:00,32.4,18.9,30.31,WNW,303,10.0,17.0,57,0.00,,---,0.00,0.00,VWS V14.01,2013-03-25 16:09:00,
2013-03-25 11:14:00,32.9,19.4,30.31,NNW,341,9.0,17.0,57,0.00,,---,0.00,0.00,VWS V14.01,2013-03-25 16:14:00,
2013-03-25 11:19:00,33.1,19.1,30.31,West,269,5.0,17.0,56,0.00,,---,0.00,0.00,VWS V14.01,2013-03-25 16:19:00,
2013-03-25 11:24:00,32.9,19.4,30.31,West,261,9.0,17.0,57,0.00,,---,0.00,0.00,VWS V14.01,2013-03-25 16:24:00,
2013-03-25 11:29:00,32.5,19.0,30.31,WSW,253,9.0,17.0,57,0.00,,---,0.00,0.00,VWS V14.01,2013-03-25 16:29:00,
2013-03-25 11:30:00,32.5,19.0,30.31,SW,225,12.0,17.0,57,0.00,,---,0.00,0.00,VWS V14.01,2013-03-25 16:30:00,
2013-03-25 11:34:00,32.6,19.5,30.31,West,276,4.0,15.0,58,0.00,,---,0.00,0.00,VWS V14.01,2013-03-25 16:34:00,
2013-03-25 11:39:00,32.2,19.5,30.31,NW,311,8.0,16.0,59,0.00,,---,0.00,0.00,VWS V14.01,2013-03-25 16:39:00,
2013-03-25 11:45:00,33.0,18.6,30.31,NNW,346,14.0,16.0,55,0.00,,---,0.00,0.00,VWS V14.01,2013-03-25 16:45:00,
2013-03-25 11:50:00,32.7,18.8,30.31,WNW,284,15.0,16.0,56,0.00,,---,0.00,0.00,VWS V14.01,2013-03-25 16:50:00,
2013-03-25 11:55:00,33.1,19.5,30.31,WSW,241,5.0,16.0,57,0.00,,---,0.00,0.00,VWS V14.01,2013-03-25 16:55:00,
2013-03-25 12:00:00,33.5,19.1,30.31,WNW,294,7.0,7.0,55,0.00,,---,0.00,0.00,VWS V14.01,2013-03-25 17:00:00,
2013-03-25 12:05:00,32.9,18.5,30.31,NW,325,5.0,18.0,55,0.00,,---,0.00,0.00,VWS V14.01,2013-03-25 17:05:00,
2013-03-25 12:10:00,33.5,19.1,30.31,NW,326,8.0,18.0,55,0.00,,---,0.00,0.00,VWS V14.01,2013-03-25 17:10:00,
2013-03-25 12:15:00,33.4,18.6,30.32,NNW,327,6.0,18.0,54,0.00,,---,0.00,0.00,VWS V14.01,2013-03-25 17:15:00,
2013-03-25 12:20:00,33.3,18.5,30.31,NNE,13,7.0,18.0,54,0.00,,---,0.00,0.00,VWS V14.01,2013-03-25 17:20:00,
2013-03-25 12:25:00,33.5,18.2,30.32,NW,315,8.0,18.0,53,0.00,,---,0.00,0.00,VWS V14.01,2013-03-25 17:25:00,
2013-03-25 12:30:00,33.2,18.4,30.31,NW,306,5.0,8.0,54,0.00,,---,0.00,0.00,VWS V14.01,2013-03-25 17:30:00,
2013-03-25 12:35:00,33.8,18.0,30.31,NNW,333,5.0,13.0,52,0.00,,---,0.00,0.00,VWS V14.01,2013-03-25 17:35:00,
2013-03-25 12:40:00,34.4,18.6,30.31,East,85,8.0,13.0,52,0.00,,---,0.00,0.00,VWS V14.01,2013-03-25 17:40:00,
2013-03-25 12:45:00,33.9,19.0,30.32,NNW,333,2.0,14.0,54,0.00,,---,0.00,0.00,VWS V14.01,2013-03-25 17:45:00,
2013-03-25 12:50:00,34.0,19.1,30.31,WNW,296,9.0,15.0,54,0.00,,---,0.00,0.00,VWS V14.01,2013-03-25 17:50:00,
2013-03-25 12:55:00,34.0,18.7,30.31,WNW,296,2.0,15.0,53,0.00,,---,0.00,0.00,VWS V14.01,2013-03-25 17:55:00,
2013-03-25 13:00:00,34.2,17.5,30.31,NNE,26,8.0,11.0,50,0.00,,---,0.00,0.00,VWS V14.01,2013-03-25 18:00:00,
2013-03-25 13:05:00,33.9,17.2,30.31,WNW,303,8.0,13.0,50,0.00,,---,0.00,0.00,VWS V14.01,2013-03-25 18:05:00,
2013-03-25 13:10:00,33.6,17.9,30.31,WNW,291,3.0,14.0,52,0.00,,---,0.00,0.00,VWS V14.01,2013-03-25 18:10:00,
2013-03-25 13:15:00,33.8,18.9,30.31,NW,315,7.0,14.0,54,0.00,,---,0.00,0.00,VWS V14.01,2013-03-25 18:15:00,
2013-03-25 13:20:00,33.4,19.0,30.31,WNW,286,12.0,16.0,55,0.00,,---,0.00,0.00,VWS V14.01,2013-03-25 18:20:00,
2013-03-25 13:25:00,33.4,18.6,30.31,NW,323,14.0,16.0,54,0.00,,---,0.00,0.00,VWS V14.01,2013-03-25 18:25:00,
2013-03-25 13:30:00,33.2,18.4,30.31,SSW,196,2.0,7.0,54,0.00,,---,0.00,0.00,VWS V14.01,2013-03-25 18:30:00,
2013-03-25 13:35:00,33.7,18.0,30.31,NNW,333,10.0,13.0,52,0.00,,---,0.00,0.00,VWS V14.01,2013-03-25 18:35:00,
2013-03-25 13:40:00,34.0,18.2,30.31,NW,308,8.0,13.0,52,0.00,,---,0.00,0.00,VWS V14.01,2013-03-25 18:40:00,
2013-03-25 13:45:00,33.9,17.2,30.31,NW,321,8.0,17.0,50,0.00,,---,0.00,0.00,VWS V14.01,2013-03-25 18:45:00,
2013-03-25 13:50:00,33.9,17.7,30.31,NNW,343,11.0,17.0,51,0.00,,---,0.00,0.00,VWS V14.01,2013-03-25 18:50:00,
2013-03-25 13:55:00,34.0,17.8,30.31,WSW,245,10.0,17.0,51,0.00,,---,0.00,0.00,VWS V14.01,2013-03-25 18:55:00,
2013-03-25 14:00:00,34.1,17.4,30.31,West,278,10.0,17.0,50,0.00,,---,0.00,0.00,VWS V14.01,2013-03-25 19:00:00,
2013-03-25 14:01:00,34.1,17.4,30.31,NW,315,7.0,10.0,50,0.00,,---,0.00,0.00,VWS V14.01,2013-03-25 19:01:00,
2013-03-25 14:06:00,34.4,18.2,30.31,WNW,294,5.0,11.0,51,0.00,,---,0.00,0.00,VWS V14.01,2013-03-25 19:06:00,
2013-03-25 14:11:00,34.7,17.5,30.30,NNW,343,12.0,14.0,49,0.00,,---,0.00,0.00,VWS V14.01,2013-03-25 19:11:00,
2013-03-25 14:16:00,34.3,17.1,30.30,NW,326,7.0,14.0,49,0.00,,---,0.00,0.00,VWS V14.01,2013-03-25 19:16:00,
2013-03-25 14:21:00,33.8,16.7,30.31,NW,323,6.0,14.0,49,0.00,,---,0.00,0.00,VWS V14.01,2013-03-25 19:21:00,
2013-03-25 14:26:00,33.7,18.0,30.31,WSW,253,13.0,14.0,52,0.00,,---,0.00,0.00,VWS V14.01,2013-03-25 19:26:00,
2013-03-25 14:30:00,33.8,17.1,30.30,NW,311,9.0,14.0,50,0.00,,---,0.00,0.00,VWS V14.01,2013-03-25 19:30:00,
2013-03-25 14:32:00,34.0,17.3,30.30,SW,223,8.0,13.0,50,0.00,,---,0.00,0.00,VWS V14.01,2013-03-25 19:32:00,
2013-03-25 14:37:00,34.2,17.5,30.30,NNW,333,8.0,15.0,50,0.00,,---,0.00,0.00,VWS V14.01,2013-03-25 19:37:00,
2013-03-25 14:42:00,34.4,17.2,30.30,NW,308,1.0,15.0,49,0.00,,---,0.00,0.00,VWS V14.01,2013-03-25 19:42:00,
2013-03-25 14:47:00,34.4,17.2,30.30,West,281,3.0,15.0,49,0.00,,---,0.00,0.00,VWS V14.01,2013-03-25 19:47:00,
2013-03-25 14:52:00,32.5,13.5,30.31,WNW,294,10.0,22.0,45,0.00,,---,0.00,269.00,VWS V14.01,2013-03-25 19:52:00,
2013-03-25 14:57:00,32.4,13.9,30.30,NW,308,9.0,22.0,46,0.00,,---,0.00,350.00,VWS V14.01,2013-03-25 19:57:00,
2013-03-25 15:00:00,32.5,13.5,30.30,NW,315,11.0,22.0,45,0.00,,---,0.00,318.00,VWS V14.01,2013-03-25 20:00:00,
2013-03-25 15:02:00,32.5,13.0,30.30,WNW,300,16.0,23.0,44,0.00,,---,0.00,301.00,VWS V14.01,2013-03-25 20:02:00,
2013-03-25 15:07:00,32.8,13.8,30.30,NNW,336,6.0,23.0,45,0.00,,---,0.00,294.00,VWS V14.01,2013-03-25 20:07:00,
2013-03-25 15:12:00,32.7,13.7,30.30,NW,320,10.0,23.0,45,0.00,,---,0.00,295.00,VWS V14.01,2013-03-25 20:12:00,
2013-03-25 15:17:00,32.8,12.2,30.30,NNW,329,9.0,23.0,42,0.00,,---,0.00,255.00,VWS V14.01,2013-03-25 20:17:00,
2013-03-25 15:22:00,32.8,12.2,30.30,WNW,294,18.0,23.0,42,0.00,,---,0.00,320.00,VWS V14.01,2013-03-25 20:22:00,
2013-03-25 15:27:00,32.7,12.7,30.30,NNW,328,16.0,23.0,43,0.00,,---,0.00,316.00,VWS V14.01,2013-03-25 20:27:00,
2013-03-25 15:30:00,32.9,13.4,30.30,West,281,8.0,23.0,44,0.00,,---,0.00,301.00,VWS V14.01,2013-03-25 20:30:00,
2013-03-25 15:32:00,32.9,12.9,30.29,NW,313,10.0,18.0,43,0.00,,---,0.00,264.00,VWS V14.01,2013-03-25 20:32:00,
2013-03-25 15:37:00,32.9,11.8,30.29,NW,309,10.0,24.0,41,0.00,,---,0.00,309.00,VWS V14.01,2013-03-25 20:37:00,
2013-03-25 15:42:00,33.2,13.1,30.29,NW,311,17.0,24.0,43,0.00,,---,0.00,329.00,VWS V14.01,2013-03-25 20:42:00,
2013-03-25 15:47:00,32.9,11.8,30.30,NW,313,10.0,24.0,41,0.00,,---,0.00,255.00,VWS V14.01,2013-03-25 20:47:00,
2013-03-25 15:52:00,32.9,12.3,30.30,NW,308,16.0,24.0,42,0.00,,---,0.00,174.00,VWS V14.01,2013-03-25 20:52:00,
2013-03-25 15:57:00,33.1,13.1,30.30,NW,305,15.0,24.0,43,0.00,,---,0.00,207.00,VWS V14.01,2013-03-25 20:57:00,
2013-03-25 16:00:00,32.8,12.2,30.30,WNW,298,14.0,24.0,42,0.00,,---,0.00,251.00,VWS V14.01,2013-03-25 21:00:00,
2013-03-25 16:02:00,32.9,13.4,30.30,NNW,338,6.0,16.0,44,0.00,,---,0.00,290.00,VWS V14.01,2013-03-25 21:02:00,
2013-03-25 16:07:00,33.2,13.1,30.30,NW,311,12.0,21.0,43,0.00,,---,0.00,269.00,VWS V14.01,2013-03-25 21:07:00,
2013-03-25 16:13:00,33.2,14.2,30.30,NW,306,19.0,21.0,45,0.00,,---,0.00,262.00,VWS V14.01,2013-03-25 21:13:00,
2013-03-25 16:18:00,33.1,14.1,30.30,NW,308,10.0,23.0,45,0.00,,---,0.00,179.00,VWS V14.01,2013-03-25 21:18:00,
2013-03-25 16:23:00,33.1,12.5,30.29,WNW,294,18.0,23.0,42,0.00,,---,0.00,200.00,VWS V14.01,2013-03-25 21:23:00,
2013-03-25 16:28:00,33.1,14.1,30.30,NW,317,6.0,23.0,45,0.00,,---,0.00,316.00,VWS V14.01,2013-03-25 21:28:00,
2013-03-25 16:30:00,33.2,13.7,30.30,WNW,291,10.0,23.0,44,0.00,,---,0.00,223.00,VWS V14.01,2013-03-25 21:30:00,
2013-03-25 16:33:00,33.2,13.1,30.30,WNW,293,14.0,21.0,43,0.00,,---,0.00,181.00,VWS V14.01,2013-03-25 21:33:00,
2013-03-25 16:38:00,33.1,13.1,30.30,NW,326,16.0,23.0,43,0.00,,---,0.00,162.00,VWS V14.01,2013-03-25 21:38:00,
2013-03-25 16:43:00,33.1,13.6,30.30,NNW,337,17.0,23.0,44,0.00,,---,0.00,176.00,VWS V14.01,2013-03-25 21:43:00,
2013-03-25 16:48:00,33.1,13.1,30.30,NW,324,15.0,23.0,43,0.00,,---,0.00,186.00,VWS V14.01,2013-03-25 21:48:00,
2013-03-25 16:53:00,33.2,13.7,30.30,NW,315,7.0,23.0,44,0.00,,---,0.00,190.00,VWS V14.01,2013-03-25 21:53:00,
2013-03-25 16:58:00,33.1,13.6,30.30,NW,317,19.0,23.0,44,0.00,,---,0.00,186.00,VWS V14.01,2013-03-25 21:58:00,
2013-03-25 17:00:00,33.1,13.1,30.30,NNW,348,11.0,23.0,43,0.00,,---,0.00,174.00,VWS V14.01,2013-03-25 22:00:00,
2013-03-25 17:03:00,33.4,13.9,30.30,WNW,292,10.0,15.0,44,0.00,,---,0.00,162.00,VWS V14.01,2013-03-25 22:03:00,
2013-03-25 17:08:00,33.2,13.7,30.30,NW,311,13.0,19.0,44,0.00,,---,0.00,248.00,VWS V14.01,2013-03-25 22:08:00,
2013-03-25 17:13:00,33.4,13.9,30.30,WNW,286,13.0,20.0,44,0.00,,---,0.00,139.00,VWS V14.01,2013-03-25 22:13:00,
2013-03-25 17:18:00,33.4,13.9,30.30,NW,325,16.0,20.0,44,0.00,,---,0.00,127.00,VWS V14.01,2013-03-25 22:18:00,
2013-03-25 17:23:00,33.4,13.3,30.30,NW,323,13.0,22.0,43,0.00,,---,0.00,278.00,VWS V14.01,2013-03-25 22:23:00,
2013-03-25 17:28:00,33.4,12.2,30.30,NW,305,6.0,23.0,41,0.00,,---,0.00,134.00,VWS V14.01,2013-03-25 22:28:00,
2013-03-25 17:30:00,33.2,12.6,30.30,North,349,19.0,23.0,42,0.00,,---,0.00,109.00,VWS V14.01,2013-03-25 22:30:00,
2013-03-25 17:33:00,33.2,13.1,30.30,NW,318,12.0,19.0,43,0.00,,---,0.00,98.00,VWS V14.01,2013-03-25 22:33:00,
2013-03-25 17:38:00,33.2,14.2,30.31,NNW,327,15.0,20.0,45,0.00,,---,0.00,120.00,VWS V14.01,2013-03-25 22:38:00,
2013-03-25 17:43:00,33.2,13.1,30.31,NNW,330,13.0,20.0,43,0.00,,---,0.00,135.00,VWS V14.01,2013-03-25 22:43:00,
2013-03-25 17:48:00,33.2,13.7,30.31,NW,323,11.0,20.0,44,0.00,,---,0.00,121.00,VWS V14.01,2013-03-25 22:48:00,
2013-03-25 17:53:00,33.2,14.2,30.31,WNW,300,5.0,20.0,45,0.00,,---,0.00,114.00,VWS V14.01,2013-03-25 22:53:00,
2013-03-25 17:58:00,32.9,14.4,30.31,NW,307,16.0,23.0,46,0.00,,---,0.00,125.00,VWS V14.01,2013-03-25 22:58:00,
2013-03-25 18:00:00,32.8,14.3,30.31,NW,325,14.0,23.0,46,0.00,,---,0.00,127.00,VWS V14.01,2013-03-25 23:00:00,
2013-03-25 18:03:00,32.8,14.3,30.31,NNW,347,12.0,23.0,46,0.00,,---,0.00,128.00,VWS V14.01,2013-03-25 23:03:00,
2013-03-25 18:08:00,33.1,14.6,30.31,NNW,333,4.0,23.0,46,0.00,,---,0.00,125.00,VWS V14.01,2013-03-25 23:08:00,
2013-03-25 18:14:00,33.1,14.6,30.31,NW,321,13.0,23.0,46,0.00,,---,0.00,125.00,VWS V14.01,2013-03-25 23:14:00,
2013-03-25 18:19:00,32.9,14.4,30.31,NNW,334,11.0,23.0,46,0.00,,---,0.00,139.00,VWS V14.01,2013-03-25 23:19:00,
2013-03-25 18:24:00,33.1,15.1,30.31,NNW,337,13.0,23.0,47,0.00,,---,0.00,97.00,VWS V14.01,2013-03-25 23:24:00,
2013-03-25 18:29:00,32.9,14.4,30.31,WNW,295,8.0,23.0,46,0.00,,---,0.00,63.00,VWS V14.01,2013-03-25 23:29:00,
2013-03-25 18:30:00,32.8,14.8,30.31,NW,317,9.0,23.0,47,0.00,,---,0.00,65.00,VWS V14.01,2013-03-25 23:30:00,
2013-03-25 18:34:00,32.8,14.8,30.31,NNW,334,11.0,17.0,47,0.00,,---,0.00,65.00,VWS V14.01,2013-03-25 23:34:00,
2013-03-25 18:39:00,32.7,15.2,30.32,NW,318,9.0,19.0,48,0.00,,---,0.00,70.00,VWS V14.01,2013-03-25 23:39:00,
2013-03-25 18:44:00,32.7,14.7,30.32,NW,318,7.0,19.0,47,0.00,,---,0.00,70.00,VWS V14.01,2013-03-25 23:44:00,
2013-03-25 18:49:00,32.7,15.2,30.32,NNW,341,8.0,19.0,48,0.00,,---,0.00,56.00,VWS V14.01,2013-03-25 23:49:00,
2013-03-25 18:54:00,32.8,15.3,30.32,NNW,338,10.0,19.0,48,0.00,,---,0.00,53.00,VWS V14.01,2013-03-25 23:54:00,
2013-03-25 18:59:00,32.7,13.7,30.32,NNW,337,14.0,19.0,45,0.00,,---,0.00,49.00,VWS V14.01,2013-03-25 23:59:00,
2013-03-25 19:00:00,32.7,13.7,30.32,NNW,335,13.0,19.0,45,0.00,,---,0.00,47.00,VWS V14.01,2013-03-26 00:00:00,
2013-03-25 19:04:00,32.7,14.7,30.33,WNW,302,10.0,20.0,47,0.00,,---,0.00,40.00,VWS V14.01,2013-03-26 00:04:00,
2013-03-25 19:09:00,32.4,14.9,30.33,NW,317,6.0,20.0,48,0.00,,---,0.00,42.00,VWS V14.01,2013-03-26 00:09:00,
2013-03-25 19:14:00,32.4,14.9,30.33,NNW,337,7.0,20.0,48,0.00,,---,0.00,40.00,VWS V14.01,2013-03-26 00:14:00,
2013-03-25 19:19:00,32.4,14.4,30.33,NNW,336,9.0,20.0,47,0.00,,---,0.00,37.00,VWS V14.01,2013-03-26 00:19:00,
2013-03-25 19:24:00,32.4,14.9,30.33,NW,325,12.0,20.0,48,0.00,,---,0.00,33.00,VWS V14.01,2013-03-26 00:24:00,
2013-03-25 19:29:00,32.2,14.7,30.33,NW,315,12.0,20.0,48,0.00,,---,0.00,28.00,VWS V14.01,2013-03-26 00:29:00,
2013-03-25 19:30:00,32.2,14.7,30.33,North,351,12.0,20.0,48,0.00,,---,0.00,28.00,VWS V14.01,2013-03-26 00:30:00,
2013-03-25 19:34:00,32.1,14.6,30.33,NNW,328,8.0,15.0,48,0.00,,---,0.00,23.00,VWS V14.01,2013-03-26 00:34:00,
2013-03-25 19:39:00,32.1,14.6,30.33,NNW,347,9.0,15.0,48,0.00,,---,0.00,16.00,VWS V14.01,2013-03-26 00:39:00,
2013-03-25 19:44:00,32.1,15.1,30.33,NNW,348,8.0,15.0,49,0.00,,---,0.00,11.00,VWS V14.01,2013-03-26 00:44:00,
2013-03-25 19:49:00,31.9,15.4,30.34,NNW,336,13.0,15.0,50,0.00,,---,0.00,7.00,VWS V14.01,2013-03-26 00:49:00,
2013-03-25 19:54:00,31.9,15.4,30.34,NNW,332,10.0,15.0,50,0.00,,---,0.00,0.00,VWS V14.01,2013-03-26 00:54:00,
2013-03-25 19:59:00,31.8,15.8,30.34,NNW,346,11.0,15.0,51,0.00,,---,0.00,0.00,VWS V14.01,2013-03-26 00:59:00,
2013-03-25 20:00:00,31.8,15.8,30.34,NW,324,11.0,15.0,51,0.00,,---,0.00,0.00,VWS V14.01,2013-03-26 01:00:00,
2013-03-25 20:04:00,31.6,15.1,30.34,NNW,333,8.0,14.0,50,0.00,,---,0.00,0.00,VWS V14.01,2013-03-26 01:04:00,
2013-03-25 20:09:00,31.5,15.0,30.34,NNW,343,6.0,14.0,50,0.00,,---,0.00,0.00,VWS V14.01,2013-03-26 01:09:00,
2013-03-25 20:14:00,31.3,15.3,30.34,NNW,336,8.0,14.0,51,0.00,,---,0.00,0.00,VWS V14.01,2013-03-26 01:14:00,
2013-03-25 20:19:00,31.3,15.3,30.34,NNW,331,5.0,14.0,51,0.00,,---,0.00,0.00,VWS V14.01,2013-03-26 01:19:00,
2013-03-25 20:24:00,31.2,15.2,30.34,NW,305,6.0,14.0,51,0.00,,---,0.00,0.00,VWS V14.01,2013-03-26 01:24:00,
2013-03-25 20:29:00,31.0,15.0,30.34,NNW,336,6.0,14.0,51,0.00,,---,0.00,0.00,VWS V14.01,2013-03-26 01:29:00,
2013-03-25 20:30:00,31.0,15.0,30.34,NW,319,8.0,14.0,51,0.00,,---,0.00,0.00,VWS V14.01,2013-03-26 01:30:00,
2013-03-25 20:34:00,30.9,15.4,30.34,NW,316,8.0,9.0,52,0.00,,---,0.00,0.00,VWS V14.01,2013-03-26 01:34:00,
2013-03-25 20:39:00,30.7,15.2,30.34,NNW,328,5.0,13.0,52,0.00,,---,0.00,0.00,VWS V14.01,2013-03-26 01:39:00,
2013-03-25 20:44:00,30.6,15.5,30.34,NNW,340,5.0,13.0,53,0.00,,---,0.00,0.00,VWS V14.01,2013-03-26 01:44:00,
2013-03-25 20:49:00,30.4,15.3,30.35,NW,323,6.0,13.0,53,0.00,,---,0.00,0.00,VWS V14.01,2013-03-26 01:49:00,
2013-03-25 20:54:00,30.4,15.3,30.35,NNW,334,9.0,13.0,53,0.00,,---,0.00,0.00,VWS V14.01,2013-03-26 01:54:00,
2013-03-25 20:59:00,30.4,15.8,30.35,NNW,331,3.0,13.0,54,0.00,,---,0.00,0.00,VWS V14.01,2013-03-26 01:59:00,
2013-03-25 21:00:00,30.4,15.8,30.35,NNW,331,6.0,13.0,54,0.00,,---,0.00,0.00,VWS V14.01,2013-03-26 02:00:00,
2013-03-25 21:04:00,30.4,16.2,30.35,NNW,333,2.0,8.0,55,0.00,,---,0.00,0.00,VWS V14.01,2013-03-26 02:04:00,
2013-03-25 21:09:00,30.3,16.1,30.35,NW,320,7.0,8.0,55,0.00,,---,0.00,0.00,VWS V14.01,2013-03-26 02:09:00,
2013-03-25 21:14:00,30.1,15.9,30.35,NW,323,2.0,9.0,55,0.00,,---,0.00,0.00,VWS V14.01,2013-03-26 02:14:00,
2013-03-25 21:19:00,30.1,15.9,30.35,NW,324,4.0,9.0,55,0.00,,---,0.00,0.00,VWS V14.01,2013-03-26 02:19:00,
2013-03-25 21:24:00,30.0,16.2,30.35,NNW,342,3.0,9.0,56,0.00,,---,0.00,0.00,VWS V14.01,2013-03-26 02:24:00,
2013-03-25 21:29:00,29.8,16.0,30.36,NNW,337,5.0,9.0,56,0.00,,---,0.00,0.00,VWS V14.01,2013-03-26 02:29:00,
2013-03-25 21:30:00,29.8,16.0,30.36,NNW,344,7.0,9.0,56,0.00,,---,0.00,0.00,VWS V14.01,2013-03-26 02:30:00,
2013-03-25 21:34:00,29.8,16.0,30.35,NNW,327,5.0,7.0,56,0.00,,---,0.00,0.00,VWS V14.01,2013-03-26 02:34:00,
2013-03-25 21:39:00,29.8,16.0,30.36,NNW,332,2.0,7.0,56,0.00,,---,0.00,0.00,VWS V14.01,2013-03-26 02:39:00,
2013-03-25 21:44:00,29.8,16.0,30.36,NNW,340,3.0,7.0,56,0.00,,---,0.00,0.00,VWS V14.01,2013-03-26 02:44:00,
2013-03-25 21:49:00,29.7,16.4,30.36,North,355,3.0,7.0,57,0.00,,---,0.00,0.00,VWS V14.01,2013-03-26 02:49:00,
2013-03-25 21:54:00,29.5,16.2,30.36,North,5,6.0,7.0,57,0.00,,---,0.00,0.00,VWS V14.01,2013-03-26 02:54:00,
2013-03-25 21:59:00,29.5,16.6,30.36,NW,326,4.0,7.0,58,0.00,,---,0.00,0.00,VWS V14.01,2013-03-26 02:59:00,
2013-03-25 22:00:00,29.5,16.6,30.36,NW,326,3.0,7.0,58,0.00,,---,0.00,0.00,VWS V14.01,2013-03-26 03:00:00,
2013-03-25 22:04:00,29.5,16.6,30.36,North,355,4.0,7.0,58,0.00,,---,0.00,0.00,VWS V14.01,2013-03-26 03:04:00,
2013-03-25 22:09:00,29.4,16.5,30.36,NNW,347,4.0,7.0,58,0.00,,---,0.00,0.00,VWS V14.01,2013-03-26 03:09:00,
2013-03-25 22:14:00,29.4,16.5,30.36,NNW,337,5.0,7.0,58,0.00,,---,0.00,0.00,VWS V14.01,2013-03-26 03:14:00,
2013-03-25 22:19:00,29.3,16.4,30.36,NNW,334,3.0,7.0,58,0.00,,---,0.00,0.00,VWS V14.01,2013-03-26 03:19:00,
2013-03-25 22:24:00,29.1,16.2,30.36,NNW,343,4.0,7.0,58,0.00,,---,0.00,0.00,VWS V14.01,2013-03-26 03:24:00,
2013-03-25 22:30:00,29.1,16.2,30.36,NNW,344,4.0,7.0,58,0.00,,---,0.00,0.00,VWS V14.01,2013-03-26 03:30:00,
2013-03-25 22:35:00,29.0,16.5,30.37,NNW,337,4.0,6.0,59,0.00,,---,0.00,0.00,VWS V14.01,2013-03-26 03:35:00,
2013-03-25 22:40:00,28.8,16.3,30.37,NNW,337,6.0,6.0,59,0.00,,---,0.00,0.00,VWS V14.01,2013-03-26 03:40:00,
2013-03-25 22:45:00,28.8,16.3,30.37,NNW,337,3.0,6.0,59,0.00,,---,0.00,0.00,VWS V14.01,2013-03-26 03:45:00,
2013-03-25 22:50:00,28.7,16.6,30.37,NNW,337,2.0,6.0,60,0.00,,---,0.00,0.00,VWS V14.01,2013-03-26 03:50:00,
2013-03-25 22:55:00,28.5,16.4,30.37,NNW,337,4.0,6.0,60,0.00,,---,0.00,0.00,VWS V14.01,2013-03-26 03:55:00,
2013-03-25 23:00:00,28.5,16.4,30.37,NNW,337,2.0,6.0,60,0.00,,---,0.00,0.00,VWS V14.01,2013-03-26 04:00:00,
2013-03-25 23:05:00,28.4,16.7,30.37,NNW,337,3.0,4.0,61,0.00,,---,0.00,0.00,VWS V14.01,2013-03-26 04:05:00,
2013-03-25 23:10:00,28.2,16.9,30.38,NNW,337,2.0,4.0,62,0.00,,---,0.00,0.00,VWS V14.01,2013-03-26 04:10:00,
2013-03-25 23:15:00,28.2,16.9,30.38,NNW,337,2.0,4.0,62,0.00,,---,0.00,0.00,VWS V14.01,2013-03-26 04:15:00,
2013-03-25 23:20:00,28.2,16.9,30.38,NNW,337,2.0,4.0,62,0.00,,---,0.00,0.00,VWS V14.01,2013-03-26 04:20:00,
2013-03-25 23:25:00,28.1,16.8,30.38,WNW,286,1.0,4.0,62,0.00,,---,0.00,0.00,VWS V14.01,2013-03-26 04:25:00,
2013-03-25 23:30:00,28.1,19.3,30.38,NNW,336,1.0,2.0,69,0.00,,---,0.00,0.00,VWS V14.01,2013-03-26 04:30:00,
2013-03-25 23:35:00,28.0,19.2,30.38,NW,318,1.0,3.0,69,0.00,,---,0.00,0.00,VWS V14.01,2013-03-26 04:35:00,
2013-03-25 23:40:00,28.0,19.2,30.38,NW,312,1.0,4.0,69,0.00,,---,0.00,0.00,VWS V14.01,2013-03-26 04:40:00,
2013-03-25 23:45:00,28.0,19.2,30.38,NW,314,0.0,4.0,69,0.00,,---,0.00,0.00,VWS V14.01,2013-03-26 04:45:00,
2013-03-25 23:50:00,27.9,19.1,30.39,NW,308,1.0,4.0,69,0.00,,---,0.00,0.00,VWS V14.01,2013-03-26 04:50:00,
2013-03-25 23:55:00,27.7,18.9,30.39,WNW,303,1.0,4.0,69,0.00,,---,0.00,0.00,VWS V14.01,2013-03-26 04:55:00,